sensor_id;sensor_type;location;lat;lon;timestamp;P1;durP1;ratioP1;P2;durP2;ratioP2
22129;SDS011;11231;50.746;4.272;2023-05-08T00:02:09;27.90;;;18.53;;
22129;SDS011;11231;50.746;4.272;2023-05-08T00:04:35;27.93;;;18.53;;
22129;SDS011;11231;50.746;4.272;2023-05-08T00:07:00;25.40;;;18.83;;
22129;SDS011;11231;50.746;4.272;2023-05-08T00:09:26;27.97;;;20.47;;
22129;SDS011;11231;50.746;4.272;2023-05-08T00:11:52;25.47;;;20.10;;
22129;SDS011;11231;50.746;4.272;2023-05-08T00:14:18;29.60;;;20.77;;
22129;SDS011;11231;50.746;4.272;2023-05-08T00:16:43;31.13;;;22.20;;
22129;SDS011;11231;50.746;4.272;2023-05-08T00:19:09;31.30;;;22.17;;
22129;SDS011;11231;50.746;4.272;2023-05-08T00:21:35;30.37;;;22.20;;
22129;SDS011;11231;50.746;4.272;2023-05-08T00:24:01;28.10;;;20.97;;
22129;SDS011;11231;50.746;4.272;2023-05-08T00:26:27;30.53;;;21.67;;
22129;SDS011;11231;50.746;4.272;2023-05-08T00:28:52;30.50;;;22.40;;
22129;SDS011;11231;50.746;4.272;2023-05-08T00:31:20;31.93;;;23.23;;
22129;SDS011;11231;50.746;4.272;2023-05-08T00:33:46;30.77;;;22.57;;
22129;SDS011;11231;50.746;4.272;2023-05-08T00:36:12;36.50;;;24.77;;
22129;SDS011;11231;50.746;4.272;2023-05-08T00:38:39;30.57;;;22.07;;
22129;SDS011;11231;50.746;4.272;2023-05-08T00:41:05;36.40;;;24.17;;
22129;SDS011;11231;50.746;4.272;2023-05-08T00:43:31;30.43;;;21.50;;
22129;SDS011;11231;50.746;4.272;2023-05-08T00:45:58;35.07;;;24.27;;
22129;SDS011;11231;50.746;4.272;2023-05-08T00:48:29;37.73;;;25.03;;
22129;SDS011;11231;50.746;4.272;2023-05-08T00:50:57;45.43;;;28.13;;
22129;SDS011;11231;50.746;4.272;2023-05-08T00:53:25;49.23;;;30.83;;
22129;SDS011;11231;50.746;4.272;2023-05-08T00:55:51;48.73;;;31.30;;
22129;SDS011;11231;50.746;4.272;2023-05-08T00:58:18;50.97;;;31.37;;
22129;SDS011;11231;50.746;4.272;2023-05-08T01:00:45;52.67;;;32.10;;
22129;SDS011;11231;50.746;4.272;2023-05-08T01:03:12;50.10;;;31.53;;
22129;SDS011;11231;50.746;4.272;2023-05-08T01:05:39;46.90;;;30.53;;
22129;SDS011;11231;50.746;4.272;2023-05-08T01:08:05;52.80;;;32.50;;
22129;SDS011;11231;50.746;4.272;2023-05-08T01:10:41;49.33;;;31.23;;
22129;SDS011;11231;50.746;4.272;2023-05-08T01:13:17;48.53;;;29.87;;
22129;SDS011;11231;50.746;4.272;2023-05-08T01:15:56;48.77;;;31.00;;
22129;SDS011;11231;50.746;4.272;2023-05-08T01:18:36;52.60;;;33.43;;
22129;SDS011;11231;50.746;4.272;2023-05-08T01:21:12;53.80;;;33.30;;
22129;SDS011;11231;50.746;4.272;2023-05-08T01:23:55;55.47;;;33.90;;
22129;SDS011;11231;50.746;4.272;2023-05-08T01:35:07;51.23;;;30.73;;
22129;SDS011;11231;50.746;4.272;2023-05-08T01:37:39;47.40;;;29.73;;
22129;SDS011;11231;50.746;4.272;2023-05-08T01:40:34;43.60;;;27.97;;
22129;SDS011;11231;50.746;4.272;2023-05-08T01:46:18;39.00;;;26.23;;
22129;SDS011;11231;50.746;4.272;2023-05-08T01:48:49;36.60;;;24.40;;
22129;SDS011;11231;50.746;4.272;2023-05-08T01:51:24;39.07;;;25.37;;
22129;SDS011;11231;50.746;4.272;2023-05-08T01:53:57;38.43;;;25.33;;
22129;SDS011;11231;50.746;4.272;2023-05-08T01:56:27;36.63;;;23.60;;
22129;SDS011;11231;50.746;4.272;2023-05-08T01:58:54;37.00;;;24.20;;
22129;SDS011;11231;50.746;4.272;2023-05-08T02:01:22;38.93;;;25.50;;
22129;SDS011;11231;50.746;4.272;2023-05-08T02:03:49;36.70;;;24.83;;
22129;SDS011;11231;50.746;4.272;2023-05-08T02:06:17;36.57;;;24.73;;
22129;SDS011;11231;50.746;4.272;2023-05-08T02:08:46;39.43;;;24.43;;
22129;SDS011;11231;50.746;4.272;2023-05-08T02:11:13;43.10;;;26.37;;
22129;SDS011;11231;50.746;4.272;2023-05-08T02:13:40;42.10;;;26.77;;
22129;SDS011;11231;50.746;4.272;2023-05-08T02:16:08;43.07;;;27.53;;
22129;SDS011;11231;50.746;4.272;2023-05-08T02:18:37;49.70;;;30.30;;
22129;SDS011;11231;50.746;4.272;2023-05-08T02:21:05;50.37;;;32.13;;
22129;SDS011;11231;50.746;4.272;2023-05-08T02:23:32;77.60;;;43.93;;
22129;SDS011;11231;50.746;4.272;2023-05-08T02:25:59;89.53;;;48.30;;
22129;SDS011;11231;50.746;4.272;2023-05-08T02:28:27;92.50;;;48.83;;
22129;SDS011;11231;50.746;4.272;2023-05-08T02:30:55;96.13;;;51.23;;
22129;SDS011;11231;50.746;4.272;2023-05-08T02:33:24;99.70;;;51.43;;
22129;SDS011;11231;50.746;4.272;2023-05-08T02:35:55;108.77;;;52.90;;
22129;SDS011;11231;50.746;4.272;2023-05-08T02:38:23;111.40;;;53.13;;
22129;SDS011;11231;50.746;4.272;2023-05-08T02:40:52;110.23;;;53.30;;
22129;SDS011;11231;50.746;4.272;2023-05-08T02:43:20;113.20;;;55.23;;
22129;SDS011;11231;50.746;4.272;2023-05-08T02:48:37;124.27;;;57.03;;
22129;SDS011;11231;50.746;4.272;2023-05-08T02:51:17;132.70;;;58.80;;
22129;SDS011;11231;50.746;4.272;2023-05-08T02:59:40;152.63;;;63.17;;
22129;SDS011;11231;50.746;4.272;2023-05-08T03:02:14;175.77;;;65.77;;
22129;SDS011;11231;50.746;4.272;2023-05-08T03:04:48;164.80;;;65.33;;
22129;SDS011;11231;50.746;4.272;2023-05-08T03:07:18;168.90;;;65.20;;
22129;SDS011;11231;50.746;4.272;2023-05-08T03:10:00;178.63;;;66.93;;
22129;SDS011;11231;50.746;4.272;2023-05-08T03:12:29;175.13;;;66.93;;
22129;SDS011;11231;50.746;4.272;2023-05-08T03:17:27;205.73;;;70.80;;
22129;SDS011;11231;50.746;4.272;2023-05-08T03:19:55;195.37;;;74.47;;
22129;SDS011;11231;50.746;4.272;2023-05-08T03:22:26;204.90;;;74.07;;
22129;SDS011;11231;50.746;4.272;2023-05-08T03:24:54;201.13;;;72.13;;
22129;SDS011;11231;50.746;4.272;2023-05-08T03:27:22;188.13;;;73.93;;
22129;SDS011;11231;50.746;4.272;2023-05-08T03:29:49;187.93;;;74.17;;
22129;SDS011;11231;50.746;4.272;2023-05-08T03:32:17;180.93;;;71.20;;
22129;SDS011;11231;50.746;4.272;2023-05-08T03:34:44;169.47;;;70.23;;
22129;SDS011;11231;50.746;4.272;2023-05-08T03:37:10;165.23;;;69.87;;
22129;SDS011;11231;50.746;4.272;2023-05-08T03:39:37;185.10;;;72.23;;
22129;SDS011;11231;50.746;4.272;2023-05-08T03:42:03;171.77;;;71.30;;
22129;SDS011;11231;50.746;4.272;2023-05-08T03:44:29;178.13;;;71.37;;
22129;SDS011;11231;50.746;4.272;2023-05-08T03:46:56;183.60;;;70.03;;
22129;SDS011;11231;50.746;4.272;2023-05-08T03:49:24;180.30;;;69.57;;
22129;SDS011;11231;50.746;4.272;2023-05-08T03:51:52;168.97;;;66.87;;
22129;SDS011;11231;50.746;4.272;2023-05-08T03:54:20;164.43;;;67.87;;
22129;SDS011;11231;50.746;4.272;2023-05-08T03:56:53;162.50;;;66.63;;
22129;SDS011;11231;50.746;4.272;2023-05-08T03:59:20;168.63;;;66.77;;
22129;SDS011;11231;50.746;4.272;2023-05-08T04:01:55;176.97;;;69.30;;
22129;SDS011;11231;50.746;4.272;2023-05-08T04:10:19;164.33;;;66.77;;
22129;SDS011;11231;50.746;4.272;2023-05-08T04:15:20;171.10;;;68.23;;
22129;SDS011;11231;50.746;4.272;2023-05-08T04:17:52;168.70;;;67.20;;
22129;SDS011;11231;50.746;4.272;2023-05-08T04:20:20;160.77;;;63.57;;
22129;SDS011;11231;50.746;4.272;2023-05-08T04:22:49;172.20;;;68.17;;
22129;SDS011;11231;50.746;4.272;2023-05-08T04:25:17;171.37;;;66.83;;
22129;SDS011;11231;50.746;4.272;2023-05-08T04:27:44;166.77;;;66.57;;
22129;SDS011;11231;50.746;4.272;2023-05-08T04:30:12;163.90;;;65.53;;
22129;SDS011;11231;50.746;4.272;2023-05-08T04:32:38;164.10;;;66.47;;
22129;SDS011;11231;50.746;4.272;2023-05-08T04:35:05;149.50;;;62.90;;
22129;SDS011;11231;50.746;4.272;2023-05-08T04:37:32;162.40;;;65.80;;
22129;SDS011;11231;50.746;4.272;2023-05-08T04:40:01;167.03;;;65.03;;
22129;SDS011;11231;50.746;4.272;2023-05-08T04:42:29;165.47;;;64.67;;
22129;SDS011;11231;50.746;4.272;2023-05-08T04:44:58;160.43;;;64.73;;
22129;SDS011;11231;50.746;4.272;2023-05-08T04:47:24;156.93;;;64.53;;
22129;SDS011;11231;50.746;4.272;2023-05-08T04:49:50;153.30;;;60.70;;
22129;SDS011;11231;50.746;4.272;2023-05-08T04:52:16;149.00;;;61.63;;
22129;SDS011;11231;50.746;4.272;2023-05-08T04:54:42;154.43;;;63.03;;
22129;SDS011;11231;50.746;4.272;2023-05-08T04:57:08;149.23;;;62.13;;
22129;SDS011;11231;50.746;4.272;2023-05-08T04:59:34;156.70;;;64.77;;
22129;SDS011;11231;50.746;4.272;2023-05-08T05:02:00;155.50;;;61.90;;
22129;SDS011;11231;50.746;4.272;2023-05-08T05:04:28;165.37;;;64.30;;
22129;SDS011;11231;50.746;4.272;2023-05-08T05:06:55;171.00;;;67.47;;
22129;SDS011;11231;50.746;4.272;2023-05-08T05:09:22;169.23;;;66.87;;
22129;SDS011;11231;50.746;4.272;2023-05-08T05:11:49;174.30;;;68.40;;
22129;SDS011;11231;50.746;4.272;2023-05-08T05:14:15;186.43;;;68.07;;
22129;SDS011;11231;50.746;4.272;2023-05-08T05:16:41;200.27;;;67.23;;
22129;SDS011;11231;50.746;4.272;2023-05-08T05:19:06;180.73;;;66.80;;
22129;SDS011;11231;50.746;4.272;2023-05-08T05:21:33;171.27;;;63.60;;
22129;SDS011;11231;50.746;4.272;2023-05-08T05:23:59;175.17;;;61.93;;
22129;SDS011;11231;50.746;4.272;2023-05-08T05:26:25;166.50;;;62.13;;
22129;SDS011;11231;50.746;4.272;2023-05-08T05:28:51;180.47;;;62.87;;
22129;SDS011;11231;50.746;4.272;2023-05-08T05:31:17;169.30;;;61.43;;
22129;SDS011;11231;50.746;4.272;2023-05-08T05:33:46;168.17;;;60.40;;
22129;SDS011;11231;50.746;4.272;2023-05-08T05:36:12;188.33;;;64.03;;
22129;SDS011;11231;50.746;4.272;2023-05-08T05:38:38;166.87;;;59.90;;
22129;SDS011;11231;50.746;4.272;2023-05-08T05:41:04;167.83;;;59.37;;
22129;SDS011;11231;50.746;4.272;2023-05-08T05:43:30;169.43;;;61.43;;
22129;SDS011;11231;50.746;4.272;2023-05-08T05:46:02;169.70;;;60.50;;
22129;SDS011;11231;50.746;4.272;2023-05-08T05:48:29;153.30;;;56.47;;
22129;SDS011;11231;50.746;4.272;2023-05-08T05:50:55;177.20;;;60.77;;
22129;SDS011;11231;50.746;4.272;2023-05-08T05:53:21;161.63;;;57.43;;
22129;SDS011;11231;50.746;4.272;2023-05-08T05:55:46;158.37;;;57.33;;
22129;SDS011;11231;50.746;4.272;2023-05-08T05:58:12;149.37;;;56.60;;
22129;SDS011;11231;50.746;4.272;2023-05-08T06:00:40;153.57;;;56.73;;
22129;SDS011;11231;50.746;4.272;2023-05-08T06:03:06;149.80;;;55.93;;
22129;SDS011;11231;50.746;4.272;2023-05-08T06:05:32;132.07;;;54.00;;
22129;SDS011;11231;50.746;4.272;2023-05-08T06:07:57;130.60;;;53.97;;
22129;SDS011;11231;50.746;4.272;2023-05-08T06:10:23;131.17;;;51.33;;
22129;SDS011;11231;50.746;4.272;2023-05-08T06:12:49;107.93;;;46.87;;
22129;SDS011;11231;50.746;4.272;2023-05-08T06:15:16;103.57;;;46.00;;
22129;SDS011;11231;50.746;4.272;2023-05-08T06:17:44;98.10;;;44.30;;
22129;SDS011;11231;50.746;4.272;2023-05-08T06:20:10;104.80;;;46.53;;
22129;SDS011;11231;50.746;4.272;2023-05-08T06:22:37;98.37;;;45.63;;
22129;SDS011;11231;50.746;4.272;2023-05-08T06:25:04;100.10;;;45.30;;
22129;SDS011;11231;50.746;4.272;2023-05-08T06:27:31;100.10;;;45.23;;
22129;SDS011;11231;50.746;4.272;2023-05-08T06:29:58;101.97;;;46.23;;
22129;SDS011;11231;50.746;4.272;2023-05-08T06:32:23;101.90;;;48.40;;
22129;SDS011;11231;50.746;4.272;2023-05-08T06:34:49;96.27;;;47.17;;
22129;SDS011;11231;50.746;4.272;2023-05-08T06:37:15;96.17;;;46.63;;
22129;SDS011;11231;50.746;4.272;2023-05-08T06:39:41;98.47;;;46.80;;
22129;SDS011;11231;50.746;4.272;2023-05-08T06:42:07;99.40;;;46.53;;
22129;SDS011;11231;50.746;4.272;2023-05-08T06:44:36;96.77;;;46.90;;
22129;SDS011;11231;50.746;4.272;2023-05-08T06:47:02;102.27;;;47.23;;
22129;SDS011;11231;50.746;4.272;2023-05-08T06:49:27;104.73;;;48.70;;
22129;SDS011;11231;50.746;4.272;2023-05-08T06:51:53;106.87;;;49.83;;
22129;SDS011;11231;50.746;4.272;2023-05-08T06:54:19;116.33;;;51.87;;
22129;SDS011;11231;50.746;4.272;2023-05-08T06:56:45;125.13;;;55.93;;
22129;SDS011;11231;50.746;4.272;2023-05-08T06:59:11;133.03;;;60.87;;
22129;SDS011;11231;50.746;4.272;2023-05-08T07:01:36;125.87;;;53.83;;
22129;SDS011;11231;50.746;4.272;2023-05-08T07:04:03;113.80;;;50.90;;
22129;SDS011;11231;50.746;4.272;2023-05-08T07:06:29;119.40;;;51.50;;
22129;SDS011;11231;50.746;4.272;2023-05-08T07:08:55;119.97;;;51.30;;
22129;SDS011;11231;50.746;4.272;2023-05-08T07:11:21;117.90;;;50.20;;
22129;SDS011;11231;50.746;4.272;2023-05-08T07:13:47;124.53;;;51.70;;
22129;SDS011;11231;50.746;4.272;2023-05-08T07:16:13;126.07;;;51.63;;
22129;SDS011;11231;50.746;4.272;2023-05-08T07:18:40;125.93;;;52.33;;
22129;SDS011;11231;50.746;4.272;2023-05-08T07:21:06;126.17;;;50.83;;
22129;SDS011;11231;50.746;4.272;2023-05-08T07:23:32;128.37;;;50.17;;
22129;SDS011;11231;50.746;4.272;2023-05-08T07:25:58;130.37;;;50.87;;
22129;SDS011;11231;50.746;4.272;2023-05-08T07:28:24;124.50;;;49.67;;
22129;SDS011;11231;50.746;4.272;2023-05-08T07:30:50;123.33;;;48.27;;
22129;SDS011;11231;50.746;4.272;2023-05-08T07:33:16;108.07;;;45.53;;
22129;SDS011;11231;50.746;4.272;2023-05-08T07:35:42;111.97;;;45.17;;
22129;SDS011;11231;50.746;4.272;2023-05-08T07:38:08;91.63;;;40.53;;
22129;SDS011;11231;50.746;4.272;2023-05-08T07:40:34;94.00;;;41.83;;
22129;SDS011;11231;50.746;4.272;2023-05-08T07:43:00;85.97;;;39.60;;
22129;SDS011;11231;50.746;4.272;2023-05-08T07:45:26;90.87;;;40.23;;
22129;SDS011;11231;50.746;4.272;2023-05-08T07:47:53;97.37;;;42.40;;
22129;SDS011;11231;50.746;4.272;2023-05-08T07:50:20;104.43;;;43.83;;
22129;SDS011;11231;50.746;4.272;2023-05-08T07:52:47;104.93;;;44.17;;
22129;SDS011;11231;50.746;4.272;2023-05-08T07:55:13;104.70;;;43.83;;
22129;SDS011;11231;50.746;4.272;2023-05-08T07:57:39;107.27;;;45.90;;
22129;SDS011;11231;50.746;4.272;2023-05-08T08:00:10;107.50;;;44.80;;
22129;SDS011;11231;50.746;4.272;2023-05-08T08:02:40;107.07;;;46.27;;
22129;SDS011;11231;50.746;4.272;2023-05-08T08:05:06;106.30;;;43.40;;
22129;SDS011;11231;50.746;4.272;2023-05-08T08:07:33;98.30;;;41.57;;
22129;SDS011;11231;50.746;4.272;2023-05-08T08:09:59;101.77;;;40.77;;
22129;SDS011;11231;50.746;4.272;2023-05-08T08:12:25;95.00;;;39.73;;
22129;SDS011;11231;50.746;4.272;2023-05-08T08:14:51;97.57;;;41.07;;
22129;SDS011;11231;50.746;4.272;2023-05-08T08:17:17;93.10;;;40.20;;
22129;SDS011;11231;50.746;4.272;2023-05-08T08:19:43;84.17;;;37.43;;
22129;SDS011;11231;50.746;4.272;2023-05-08T08:22:08;84.97;;;40.60;;
22129;SDS011;11231;50.746;4.272;2023-05-08T08:24:34;88.60;;;39.50;;
22129;SDS011;11231;50.746;4.272;2023-05-08T08:27:00;87.33;;;39.83;;
22129;SDS011;11231;50.746;4.272;2023-05-08T08:29:26;81.47;;;37.07;;
22129;SDS011;11231;50.746;4.272;2023-05-08T08:31:52;75.53;;;36.47;;
22129;SDS011;11231;50.746;4.272;2023-05-08T08:34:18;70.20;;;35.10;;
22129;SDS011;11231;50.746;4.272;2023-05-08T08:36:43;78.00;;;37.30;;
22129;SDS011;11231;50.746;4.272;2023-05-08T08:39:09;76.67;;;36.83;;
22129;SDS011;11231;50.746;4.272;2023-05-08T08:41:36;69.07;;;34.37;;
22129;SDS011;11231;50.746;4.272;2023-05-08T08:44:03;70.60;;;33.97;;
22129;SDS011;11231;50.746;4.272;2023-05-08T08:46:30;71.00;;;37.27;;
22129;SDS011;11231;50.746;4.272;2023-05-08T08:48:57;74.67;;;36.30;;
22129;SDS011;11231;50.746;4.272;2023-05-08T08:51:25;71.83;;;36.33;;
22129;SDS011;11231;50.746;4.272;2023-05-08T08:54:12;68.57;;;35.83;;
22129;SDS011;11231;50.746;4.272;2023-05-08T08:56:40;69.77;;;35.27;;
22129;SDS011;11231;50.746;4.272;2023-05-08T08:59:09;72.70;;;35.83;;
22129;SDS011;11231;50.746;4.272;2023-05-08T09:01:38;68.03;;;35.13;;
22129;SDS011;11231;50.746;4.272;2023-05-08T09:04:05;65.13;;;34.47;;
22129;SDS011;11231;50.746;4.272;2023-05-08T09:06:34;66.83;;;33.57;;
22129;SDS011;11231;50.746;4.272;2023-05-08T09:09:01;63.90;;;32.47;;
22129;SDS011;11231;50.746;4.272;2023-05-08T09:11:27;59.00;;;31.90;;
22129;SDS011;11231;50.746;4.272;2023-05-08T09:13:56;67.53;;;32.40;;
22129;SDS011;11231;50.746;4.272;2023-05-08T09:16:22;62.13;;;31.77;;
22129;SDS011;11231;50.746;4.272;2023-05-08T09:18:49;61.07;;;32.57;;
22129;SDS011;11231;50.746;4.272;2023-05-08T09:21:15;58.17;;;31.00;;
22129;SDS011;11231;50.746;4.272;2023-05-08T09:24:02;56.90;;;30.87;;
22129;SDS011;11231;50.746;4.272;2023-05-08T09:26:29;53.53;;;28.90;;
22129;SDS011;11231;50.746;4.272;2023-05-08T09:29:13;53.33;;;28.23;;
22129;SDS011;11231;50.746;4.272;2023-05-08T09:31:47;51.73;;;27.43;;
22129;SDS011;11231;50.746;4.272;2023-05-08T09:34:24;46.53;;;26.40;;
22129;SDS011;11231;50.746;4.272;2023-05-08T09:36:53;46.97;;;27.23;;
22129;SDS011;11231;50.746;4.272;2023-05-08T09:39:21;46.00;;;26.10;;
22129;SDS011;11231;50.746;4.272;2023-05-08T09:41:58;46.90;;;26.40;;
22129;SDS011;11231;50.746;4.272;2023-05-08T09:44:27;47.07;;;27.17;;
22129;SDS011;11231;50.746;4.272;2023-05-08T09:47:13;45.53;;;26.47;;
22129;SDS011;11231;50.746;4.272;2023-05-08T09:49:57;50.43;;;27.30;;
22129;SDS011;11231;50.746;4.272;2023-05-08T09:52:28;46.03;;;25.70;;
22129;SDS011;11231;50.746;4.272;2023-05-08T09:54:58;43.73;;;25.50;;
22129;SDS011;11231;50.746;4.272;2023-05-08T09:57:25;43.73;;;24.30;;
22129;SDS011;11231;50.746;4.272;2023-05-08T09:59:59;45.70;;;24.97;;
22129;SDS011;11231;50.746;4.272;2023-05-08T10:02:35;45.53;;;24.67;;
22129;SDS011;11231;50.746;4.272;2023-05-08T10:05:03;45.50;;;24.73;;
22129;SDS011;11231;50.746;4.272;2023-05-08T10:07:46;46.53;;;25.63;;
22129;SDS011;11231;50.746;4.272;2023-05-08T10:10:11;45.60;;;25.77;;
22129;SDS011;11231;50.746;4.272;2023-05-08T10:12:37;46.67;;;26.93;;
22129;SDS011;11231;50.746;4.272;2023-05-08T10:15:05;42.97;;;25.63;;
22129;SDS011;11231;50.746;4.272;2023-05-08T10:20:17;39.17;;;24.23;;
22129;SDS011;11231;50.746;4.272;2023-05-08T10:22:44;44.17;;;24.33;;
22129;SDS011;11231;50.746;4.272;2023-05-08T10:25:16;45.73;;;25.13;;
22129;SDS011;11231;50.746;4.272;2023-05-08T10:28:01;42.70;;;23.90;;
22129;SDS011;11231;50.746;4.272;2023-05-08T10:30:31;35.30;;;22.63;;
22129;SDS011;11231;50.746;4.272;2023-05-08T10:33:02;37.27;;;21.63;;
22129;SDS011;11231;50.746;4.272;2023-05-08T10:35:31;35.13;;;22.00;;
22129;SDS011;11231;50.746;4.272;2023-05-08T10:37:57;36.90;;;21.97;;
22129;SDS011;11231;50.746;4.272;2023-05-08T10:40:23;40.97;;;23.40;;
22129;SDS011;11231;50.746;4.272;2023-05-08T10:42:49;40.90;;;23.50;;
22129;SDS011;11231;50.746;4.272;2023-05-08T10:45:15;39.97;;;23.70;;
22129;SDS011;11231;50.746;4.272;2023-05-08T10:47:47;44.33;;;24.83;;
22129;SDS011;11231;50.746;4.272;2023-05-08T10:53:23;40.23;;;24.73;;
22129;SDS011;11231;50.746;4.272;2023-05-08T10:56:13;38.57;;;23.30;;
22129;SDS011;11231;50.746;4.272;2023-05-08T10:58:38;42.47;;;25.23;;
22129;SDS011;11231;50.746;4.272;2023-05-08T11:04:05;46.77;;;26.90;;
22129;SDS011;11231;50.746;4.272;2023-05-08T11:09:17;50.13;;;29.60;;
22129;SDS011;11231;50.746;4.272;2023-05-08T11:12:02;52.03;;;29.50;;
22129;SDS011;11231;50.746;4.272;2023-05-08T11:14:42;55.37;;;31.40;;
22129;SDS011;11231;50.746;4.272;2023-05-08T11:17:21;55.03;;;32.10;;
22129;SDS011;11231;50.746;4.272;2023-05-08T11:19:53;51.20;;;30.50;;
22129;SDS011;11231;50.746;4.272;2023-05-08T11:22:22;54.27;;;30.30;;
22129;SDS011;11231;50.746;4.272;2023-05-08T11:27:31;54.13;;;31.17;;
22129;SDS011;11231;50.746;4.272;2023-05-08T11:35:39;61.50;;;34.37;;
22129;SDS011;11231;50.746;4.272;2023-05-08T11:38:15;68.57;;;38.63;;
22129;SDS011;11231;50.746;4.272;2023-05-08T11:40:47;72.07;;;39.83;;
22129;SDS011;11231;50.746;4.272;2023-05-08T11:46:04;81.70;;;44.70;;
22129;SDS011;11231;50.746;4.272;2023-05-08T11:48:34;82.17;;;43.80;;
22129;SDS011;11231;50.746;4.272;2023-05-08T11:51:00;76.77;;;41.63;;
22129;SDS011;11231;50.746;4.272;2023-05-08T11:53:27;65.47;;;36.43;;
22129;SDS011;11231;50.746;4.272;2023-05-08T11:55:57;61.60;;;35.47;;
22129;SDS011;11231;50.746;4.272;2023-05-08T11:58:23;59.40;;;35.03;;
22129;SDS011;11231;50.746;4.272;2023-05-08T12:00:49;65.20;;;36.03;;
22129;SDS011;11231;50.746;4.272;2023-05-08T12:03:16;58.63;;;34.60;;
22129;SDS011;11231;50.746;4.272;2023-05-08T12:05:46;64.40;;;34.27;;
22129;SDS011;11231;50.746;4.272;2023-05-08T12:08:13;58.63;;;33.33;;
22129;SDS011;11231;50.746;4.272;2023-05-08T12:10:53;61.70;;;34.47;;
22129;SDS011;11231;50.746;4.272;2023-05-08T12:13:28;58.13;;;31.77;;
22129;SDS011;11231;50.746;4.272;2023-05-08T12:15:55;55.25;;;31.20;;
22129;SDS011;11231;50.746;4.272;2023-05-08T12:18:23;54.43;;;31.57;;
22129;SDS011;11231;50.746;4.272;2023-05-08T12:20:52;40.03;;;23.53;;
22129;SDS011;11231;50.746;4.272;2023-05-08T12:23:21;39.23;;;20.97;;
22129;SDS011;11231;50.746;4.272;2023-05-08T12:25:50;39.50;;;24.13;;
22129;SDS011;11231;50.746;4.272;2023-05-08T12:28:17;41.83;;;25.47;;
22129;SDS011;11231;50.746;4.272;2023-05-08T12:30:43;45.80;;;26.10;;
22129;SDS011;11231;50.746;4.272;2023-05-08T12:33:09;43.37;;;26.50;;
22129;SDS011;11231;50.746;4.272;2023-05-08T12:35:35;45.45;;;27.67;;
22129;SDS011;11231;50.746;4.272;2023-05-08T12:38:03;50.72;;;27.77;;
22129;SDS011;11231;50.746;4.272;2023-05-08T12:40:35;37.38;;;21.33;;
22129;SDS011;11231;50.746;4.272;2023-05-08T12:43:17;36.43;;;21.03;;
22129;SDS011;11231;50.746;4.272;2023-05-08T12:45:43;38.53;;;22.67;;
22129;SDS011;11231;50.746;4.272;2023-05-08T12:48:09;41.23;;;23.37;;
22129;SDS011;11231;50.746;4.272;2023-05-08T12:50:37;42.07;;;24.33;;
22129;SDS011;11231;50.746;4.272;2023-05-08T12:53:05;42.63;;;24.83;;
22129;SDS011;11231;50.746;4.272;2023-05-08T12:55:32;43.40;;;25.03;;
22129;SDS011;11231;50.746;4.272;2023-05-08T13:00:39;41.73;;;24.97;;
22129;SDS011;11231;50.746;4.272;2023-05-08T13:03:06;43.30;;;25.03;;
22129;SDS011;11231;50.746;4.272;2023-05-08T13:05:34;40.70;;;23.10;;
22129;SDS011;11231;50.746;4.272;2023-05-08T13:08:04;35.50;;;21.63;;
22129;SDS011;11231;50.746;4.272;2023-05-08T13:13:14;39.13;;;23.07;;
22129;SDS011;11231;50.746;4.272;2023-05-08T13:15:43;39.97;;;23.60;;
22129;SDS011;11231;50.746;4.272;2023-05-08T13:18:10;44.43;;;24.67;;
22129;SDS011;11231;50.746;4.272;2023-05-08T13:20:36;41.20;;;24.23;;
22129;SDS011;11231;50.746;4.272;2023-05-08T13:23:02;38.10;;;22.90;;
22129;SDS011;11231;50.746;4.272;2023-05-08T13:25:29;37.33;;;22.20;;
22129;SDS011;11231;50.746;4.272;2023-05-08T13:27:56;35.40;;;21.40;;
22129;SDS011;11231;50.746;4.272;2023-05-08T13:30:22;31.70;;;18.77;;
22129;SDS011;11231;50.746;4.272;2023-05-08T13:32:48;30.37;;;18.83;;
22129;SDS011;11231;50.746;4.272;2023-05-08T13:35:14;32.47;;;19.97;;
22129;SDS011;11231;50.746;4.272;2023-05-08T13:37:41;45.97;;;27.43;;
22129;SDS011;11231;50.746;4.272;2023-05-08T13:40:07;43.27;;;26.87;;
22129;SDS011;11231;50.746;4.272;2023-05-08T13:42:33;42.33;;;25.97;;
22129;SDS011;11231;50.746;4.272;2023-05-08T13:44:58;43.40;;;25.50;;
22129;SDS011;11231;50.746;4.272;2023-05-08T13:47:24;42.60;;;25.13;;
22129;SDS011;11231;50.746;4.272;2023-05-08T13:49:50;44.10;;;25.63;;
22129;SDS011;11231;50.746;4.272;2023-05-08T13:52:16;43.10;;;26.00;;
22129;SDS011;11231;50.746;4.272;2023-05-08T13:54:41;44.20;;;23.27;;
22129;SDS011;11231;50.746;4.272;2023-05-08T13:57:07;38.50;;;23.60;;
22129;SDS011;11231;50.746;4.272;2023-05-08T13:59:33;43.27;;;26.27;;
22129;SDS011;11231;50.746;4.272;2023-05-08T14:01:59;42.07;;;24.73;;
22129;SDS011;11231;50.746;4.272;2023-05-08T14:04:25;34.73;;;22.30;;
22129;SDS011;11231;50.746;4.272;2023-05-08T14:06:51;36.47;;;22.40;;
22129;SDS011;11231;50.746;4.272;2023-05-08T14:09:16;38.10;;;22.83;;
22129;SDS011;11231;50.746;4.272;2023-05-08T14:11:42;31.73;;;20.47;;
22129;SDS011;11231;50.746;4.272;2023-05-08T14:14:08;31.23;;;18.30;;
22129;SDS011;11231;50.746;4.272;2023-05-08T14:16:34;27.00;;;16.73;;
22129;SDS011;11231;50.746;4.272;2023-05-08T14:19:00;30.23;;;17.70;;
22129;SDS011;11231;50.746;4.272;2023-05-08T14:21:26;28.37;;;17.20;;
22129;SDS011;11231;50.746;4.272;2023-05-08T14:23:52;29.40;;;17.97;;
22129;SDS011;11231;50.746;4.272;2023-05-08T14:26:18;28.43;;;18.13;;
22129;SDS011;11231;50.746;4.272;2023-05-08T14:28:45;29.60;;;18.80;;
22129;SDS011;11231;50.746;4.272;2023-05-08T14:31:11;30.70;;;18.13;;
22129;SDS011;11231;50.746;4.272;2023-05-08T14:33:36;26.93;;;16.40;;
22129;SDS011;11231;50.746;4.272;2023-05-08T14:36:02;24.50;;;15.93;;
22129;SDS011;11231;50.746;4.272;2023-05-08T14:38:28;25.00;;;14.73;;
22129;SDS011;11231;50.746;4.272;2023-05-08T14:40:54;22.63;;;13.77;;
22129;SDS011;11231;50.746;4.272;2023-05-08T14:43:20;22.17;;;13.43;;
22129;SDS011;11231;50.746;4.272;2023-05-08T14:45:46;19.53;;;11.87;;
22129;SDS011;11231;50.746;4.272;2023-05-08T14:48:12;25.03;;;13.63;;
22129;SDS011;11231;50.746;4.272;2023-05-08T14:50:38;19.17;;;12.40;;
22129;SDS011;11231;50.746;4.272;2023-05-08T14:53:03;23.13;;;13.80;;
22129;SDS011;11231;50.746;4.272;2023-05-08T14:55:36;22.87;;;13.40;;
22129;SDS011;11231;50.746;4.272;2023-05-08T14:58:02;23.47;;;14.17;;
22129;SDS011;11231;50.746;4.272;2023-05-08T15:00:28;21.83;;;13.50;;
22129;SDS011;11231;50.746;4.272;2023-05-08T15:02:54;24.17;;;14.07;;
22129;SDS011;11231;50.746;4.272;2023-05-08T15:05:19;21.23;;;13.50;;
22129;SDS011;11231;50.746;4.272;2023-05-08T15:07:51;18.37;;;11.80;;
22129;SDS011;11231;50.746;4.272;2023-05-08T15:10:17;20.63;;;11.53;;
22129;SDS011;11231;50.746;4.272;2023-05-08T15:12:43;16.13;;;11.13;;
22129;SDS011;11231;50.746;4.272;2023-05-08T15:15:08;18.43;;;11.93;;
22129;SDS011;11231;50.746;4.272;2023-05-08T15:17:35;18.70;;;12.03;;
22129;SDS011;11231;50.746;4.272;2023-05-08T15:20:03;17.23;;;12.07;;
22129;SDS011;11231;50.746;4.272;2023-05-08T15:22:29;22.67;;;12.47;;
22129;SDS011;11231;50.746;4.272;2023-05-08T15:24:55;25.37;;;14.97;;